createdAt,value
2022-08-05T00:02:22.813Z,26.00
2022-08-05T00:04:55.071Z,25.99
2022-08-05T00:07:27.030Z,25.95
2022-08-05T00:10:12.001Z,25.94
2022-08-05T00:16:14.726Z,25.97
2022-08-05T00:18:44.770Z,25.95
2022-08-05T00:21:14.430Z,25.98
2022-08-05T00:23:53.606Z,25.97
2022-08-05T00:26:31.923Z,25.94
2022-08-05T00:28:59.431Z,25.93
2022-08-05T00:32:13.245Z,25.93
2022-08-05T00:35:05.287Z,25.96
2022-08-05T00:37:35.856Z,25.93
2022-08-05T00:40:29.538Z,25.94
2022-08-05T00:43:02.220Z,25.88
2022-08-05T00:45:43.096Z,25.86
2022-08-05T00:48:13.558Z,25.81
2022-08-05T00:50:44.115Z,25.82
2022-08-05T00:54:00.970Z,25.80
2022-08-05T00:56:00.386Z,25.70
2022-08-05T00:58:27.877Z,25.63
2022-08-05T01:00:56.128Z,25.63
2022-08-05T01:03:24.696Z,25.59
2022-08-05T01:06:01.189Z,25.55
2022-08-05T01:08:43.366Z,25.48
2022-08-05T01:11:22.151Z,25.45
2022-08-05T01:14:10.892Z,25.42
2022-08-05T01:16:52.341Z,25.39
2022-08-05T01:19:36.565Z,25.32
2022-08-05T01:22:42.876Z,25.20
2022-08-05T01:25:40.776Z,25.13
2022-08-05T01:28:26.992Z,25.07
2022-08-05T01:31:04.859Z,25.05
2022-08-05T01:33:39.130Z,24.98
2022-08-05T01:36:16.256Z,24.93
2022-08-05T01:38:49.629Z,24.90
2022-08-05T01:41:20.985Z,24.87
2022-08-05T01:43:51.281Z,24.91
2022-08-05T01:46:41.393Z,24.96
2022-08-05T01:49:24.383Z,24.94
2022-08-05T01:51:59.430Z,24.90
2022-08-05T01:54:46.277Z,24.85
2022-08-05T01:58:11.439Z,24.88
2022-08-05T02:00:11.861Z,24.86
2022-08-05T02:02:55.039Z,24.83
2022-08-05T02:05:29.005Z,24.83
2022-08-05T02:08:01.174Z,24.86
2022-08-05T02:10:35.299Z,24.94
2022-08-05T02:13:16.004Z,24.92
2022-08-05T02:16:06.275Z,24.98
2022-08-05T02:18:42.888Z,25.01
2022-08-05T02:21:15.072Z,25.05
2022-08-05T02:23:46.798Z,25.05
2022-08-05T02:26:26.428Z,25.13
2022-08-05T02:28:56.179Z,25.14
2022-08-05T02:31:34.969Z,25.28
2022-08-05T02:34:10.096Z,25.32
2022-08-05T02:36:43.590Z,25.32
2022-08-05T02:39:13.194Z,25.34
2022-08-05T02:41:57.496Z,25.21
2022-08-05T02:44:32.249Z,25.02
2022-08-05T02:47:01.284Z,24.80
2022-08-05T02:49:37.095Z,24.60
2022-08-05T02:52:11.759Z,24.52
2022-08-05T02:54:54.878Z,24.43
2022-08-05T02:58:20.021Z,24.42
2022-08-05T03:00:13.719Z,24.41
2022-08-05T03:02:44.068Z,24.39
2022-08-05T03:05:13.957Z,24.35
2022-08-05T03:08:00.821Z,24.37
2022-08-05T03:10:31.096Z,24.34
2022-08-05T03:15:24.879Z,24.41
2022-08-05T03:17:55.641Z,24.47
2022-08-05T03:20:24.380Z,24.44
2022-08-05T03:22:55.272Z,24.50
2022-08-05T03:25:32.441Z,24.51
2022-08-05T03:28:08.422Z,24.53
2022-08-05T03:30:38.352Z,24.49
2022-08-05T03:33:09.275Z,24.41
2022-08-05T03:35:40.731Z,24.35
2022-08-05T03:38:14.507Z,24.35
2022-08-05T03:40:47.389Z,24.36
2022-08-05T03:44:09.796Z,24.42
2022-08-05T03:46:05.518Z,24.62
2022-08-05T03:48:36.806Z,24.85
2022-08-05T03:52:38.609Z,25.12
2022-08-05T03:56:03.794Z,25.49
2022-08-05T03:56:58.902Z,25.95
2022-08-05T03:59:46.753Z,26.38
2022-08-05T04:02:37.755Z,26.87
2022-08-05T04:05:10.136Z,27.36
2022-08-05T04:07:58.296Z,27.86
2022-08-05T04:10:30.864Z,28.30
2022-08-05T04:13:03.425Z,28.75
2022-08-05T04:15:33.109Z,29.02
2022-08-05T04:18:04.013Z,29.36
2022-08-05T04:20:35.157Z,29.41
2022-08-05T04:23:03.146Z,29.85
2022-08-05T04:25:57.620Z,30.26
2022-08-05T04:28:22.468Z,30.69
2022-08-05T04:31:01.135Z,30.80
2022-08-05T04:34:17.269Z,30.79
2022-08-05T04:36:45.558Z,30.62
2022-08-05T04:39:06.318Z,30.46
2022-08-05T04:41:37.236Z,30.46
2022-08-05T04:44:09.642Z,30.62
2022-08-05T04:46:38.650Z,30.94
2022-08-05T04:49:14.417Z,31.12
2022-08-05T04:51:44.099Z,31.28
2022-08-05T04:54:12.264Z,31.47
2022-08-05T04:56:40.022Z,31.36
2022-08-05T04:59:21.885Z,31.79
2022-08-05T05:02:35.372Z,31.98
2022-08-05T05:04:47.666Z,31.80
2022-08-05T05:07:18.333Z,31.70
2022-08-05T05:09:52.235Z,32.13
2022-08-05T05:12:22.238Z,32.45
2022-08-05T05:14:51.317Z,32.84
2022-08-05T05:17:23.943Z,32.99
2022-08-05T05:19:56.410Z,32.28
2022-08-05T05:22:26.071Z,31.83
2022-08-05T05:25:00.262Z,32.07
2022-08-05T05:27:41.225Z,32.19
2022-08-05T05:30:30.975Z,32.65
2022-08-05T05:33:03.872Z,32.44
2022-08-05T05:35:42.684Z,32.62
2022-08-05T05:38:13.268Z,32.71
2022-08-05T05:40:48.322Z,31.97
2022-08-05T05:43:22.229Z,31.66
2022-08-05T05:46:13.629Z,31.93
2022-08-05T05:48:44.507Z,32.10
2022-08-05T05:51:14.994Z,32.20
2022-08-05T05:53:54.159Z,32.15
2022-08-05T05:56:32.675Z,32.24
2022-08-05T05:59:03.343Z,31.62
2022-08-05T06:01:38.107Z,30.79
2022-08-05T06:04:14.545Z,31.05
2022-08-05T06:06:47.400Z,31.09
2022-08-05T06:09:24.882Z,31.46
2022-08-05T06:12:01.414Z,31.34
2022-08-05T06:14:31.068Z,31.11
2022-08-05T06:17:01.938Z,31.22
2022-08-05T06:19:34.738Z,31.22
2022-08-05T06:22:07.415Z,31.18
2022-08-05T06:24:48.137Z,31.07
2022-08-05T06:28:08.841Z,31.30
2022-08-05T06:30:18.090Z,31.56
2022-08-05T06:32:50.767Z,31.91
2022-08-05T06:36:02.955Z,31.81
2022-08-05T06:38:11.171Z,31.88
2022-08-05T06:40:44.593Z,32.00
2022-08-05T06:43:59.012Z,31.91
2022-08-05T06:46:06.808Z,31.24
2022-08-05T06:48:53.696Z,30.76
2022-08-05T06:51:30.263Z,30.84
2022-08-05T06:54:00.235Z,30.96
2022-08-05T06:56:34.330Z,30.74
2022-08-05T06:59:09.744Z,30.69
2022-08-05T07:01:41.539Z,30.94
2022-08-05T07:04:10.255Z,31.58
2022-08-05T07:06:37.965Z,31.69
2022-08-05T07:09:05.661Z,31.49
2022-08-05T07:11:36.860Z,30.51
2022-08-05T07:14:29.675Z,30.41
2022-08-05T07:18:00.459Z,31.44
2022-08-05T07:22:38.818Z,31.24
2022-08-05T07:25:09.560Z,30.20
2022-08-05T07:28:02.327Z,30.54
2022-08-05T07:30:39.141Z,30.22
2022-08-05T07:33:17.112Z,29.49
2022-08-05T07:36:02.304Z,29.90
2022-08-05T07:38:42.673Z,30.78
2022-08-05T07:42:12.977Z,31.69
2022-08-05T07:44:14.149Z,32.58
2022-08-05T07:46:42.084Z,33.19
2022-08-05T07:49:15.965Z,33.79
2022-08-05T07:51:54.466Z,33.66
2022-08-05T07:54:31.169Z,34.01
2022-08-05T07:57:17.695Z,33.20
2022-08-05T07:59:51.336Z,33.10
2022-08-05T08:02:26.700Z,32.83
2022-08-05T08:04:58.853Z,32.30
2022-08-05T08:07:28.151Z,31.24
2022-08-05T08:09:55.859Z,30.90
2022-08-05T08:12:35.182Z,31.12
2022-08-05T08:15:09.665Z,31.17
2022-08-05T08:17:50.780Z,31.63
2022-08-05T08:21:00.568Z,32.24
2022-08-05T08:24:00.200Z,32.34
2022-08-05T08:25:59.070Z,32.53
2022-08-05T08:28:36.793Z,32.61
2022-08-05T08:31:18.704Z,32.56
2022-08-05T08:33:51.604Z,32.84
2022-08-05T08:36:39.212Z,33.28
2022-08-05T08:39:15.654Z,33.21
2022-08-05T08:41:52.547Z,33.65
2022-08-05T08:45:17.975Z,33.66
2022-08-05T08:48:05.564Z,33.60
2022-08-05T08:50:31.026Z,33.52
2022-08-05T08:53:12.335Z,33.85
2022-08-05T08:56:04.215Z,34.10
2022-08-05T08:58:37.579Z,34.22
2022-08-05T09:01:15.755Z,34.26
2022-08-05T09:03:57.598Z,34.82
2022-08-05T09:06:29.931Z,35.27
2022-08-05T09:09:01.097Z,35.65
2022-08-05T09:11:51.276Z,36.21
2022-08-05T09:14:58.375Z,35.71
2022-08-05T09:17:09.391Z,35.30
2022-08-05T09:20:01.323Z,34.92
2022-08-05T09:22:31.860Z,34.77
2022-08-05T09:25:02.105Z,35.13
2022-08-05T09:28:05.094Z,35.25
2022-08-05T09:30:34.939Z,35.79
2022-08-05T09:33:02.964Z,36.35
2022-08-05T09:35:32.813Z,36.11
2022-08-05T09:38:16.987Z,35.93
2022-08-05T09:40:52.639Z,35.26
2022-08-05T09:43:41.896Z,35.12
2022-08-05T09:46:27.596Z,34.43
2022-08-05T09:49:08.158Z,34.62
2022-08-05T09:51:49.915Z,34.87
2022-08-05T09:54:30.121Z,35.21
2022-08-05T09:57:01.722Z,35.30
2022-08-05T09:59:34.767Z,35.34
2022-08-05T10:02:05.490Z,35.38
2022-08-05T10:04:38.550Z,35.48
2022-08-05T10:07:20.119Z,35.60
2022-08-05T10:10:02.710Z,35.75
2022-08-05T10:12:56.885Z,36.11
2022-08-05T10:15:26.011Z,36.08
2022-08-05T10:18:10.531Z,35.54
2022-08-05T10:20:42.943Z,35.55
2022-08-05T10:23:34.194Z,35.67
2022-08-05T10:26:07.416Z,35.47
2022-08-05T10:28:46.393Z,35.47
2022-08-05T10:32:47.786Z,35.81
2022-08-05T10:34:07.860Z,35.39
2022-08-05T10:36:40.966Z,34.54
2022-08-05T10:39:25.255Z,34.18
2022-08-05T10:42:18.815Z,34.37
2022-08-05T10:45:00.374Z,34.60
2022-08-05T10:47:33.494Z,35.04
2022-08-05T10:50:32.695Z,35.59
2022-08-05T10:52:58.768Z,35.44
2022-08-05T10:55:27.681Z,35.17
2022-08-05T10:58:09.546Z,34.73
2022-08-05T11:00:46.179Z,35.20
2022-08-05T11:03:23.380Z,35.61
2022-08-05T11:06:19.133Z,36.19
2022-08-05T11:09:18.593Z,36.12
2022-08-05T11:11:54.082Z,36.20
2022-08-05T11:14:57.613Z,35.77
2022-08-05T11:17:58.859Z,36.02
2022-08-05T11:20:46.225Z,36.28
2022-08-05T11:24:03.365Z,35.38
2022-08-05T11:26:32.150Z,35.26
2022-08-05T11:29:13.255Z,35.58
2022-08-05T11:31:54.266Z,35.59
2022-08-05T11:34:52.095Z,35.55
2022-08-05T11:38:28.358Z,36.15
2022-08-05T11:41:01.804Z,35.77
2022-08-05T11:44:12.817Z,35.13
2022-08-05T11:47:10.474Z,35.01
2022-08-05T11:49:43.411Z,34.85
2022-08-05T11:52:31.010Z,34.24
2022-08-05T11:55:07.658Z,33.21
2022-08-05T11:58:08.301Z,33.05
2022-08-05T12:00:30.806Z,33.41
2022-08-05T12:02:58.806Z,33.56
2022-08-05T12:05:36.452Z,33.98
2022-08-05T12:08:11.416Z,33.89
2022-08-05T12:10:45.756Z,33.73
2022-08-05T12:13:17.058Z,34.19
2022-08-05T12:15:49.897Z,33.66
2022-08-05T12:18:39.931Z,33.82
2022-08-05T12:21:15.234Z,32.88
2022-08-05T12:24:17.581Z,33.11
2022-08-05T12:26:50.166Z,32.62
2022-08-05T12:29:25.176Z,32.74
2022-08-05T12:31:58.219Z,32.49
2022-08-05T12:34:35.900Z,32.41
2022-08-05T12:37:17.092Z,32.33
2022-08-05T12:39:51.904Z,32.22
2022-08-05T12:42:21.959Z,32.48
2022-08-05T12:44:53.098Z,32.45
2022-08-05T12:47:30.458Z,32.53
2022-08-05T12:50:04.403Z,32.12
2022-08-05T12:52:38.904Z,31.59
2022-08-05T12:55:25.142Z,30.98
2022-08-05T12:58:49.881Z,31.04
2022-08-05T13:02:02.434Z,31.89
2022-08-05T13:03:41.497Z,32.85
2022-08-05T13:06:16.780Z,32.93
2022-08-05T13:08:51.952Z,33.02
2022-08-05T13:12:01.811Z,32.84
2022-08-05T13:14:36.399Z,33.15
2022-08-05T13:17:41.366Z,33.24
2022-08-05T13:20:15.937Z,33.66
2022-08-05T13:22:49.068Z,33.60
2022-08-05T13:25:22.168Z,33.07
2022-08-05T13:28:07.849Z,33.53
2022-08-05T13:30:39.107Z,33.79
2022-08-05T13:33:06.808Z,34.14
2022-08-05T13:35:47.266Z,34.42
2022-08-05T13:38:31.192Z,34.53
2022-08-05T13:41:04.405Z,35.01
2022-08-05T13:43:44.561Z,35.22
2022-08-05T13:46:30.623Z,34.68
2022-08-05T13:49:06.064Z,34.28
2022-08-05T13:51:40.900Z,33.69
2022-08-05T13:54:12.406Z,33.78
2022-08-05T13:56:45.144Z,34.06
2022-08-05T13:59:21.386Z,34.25
2022-08-05T14:01:58.038Z,34.28
2022-08-05T14:04:51.580Z,34.49
2022-08-05T14:07:25.838Z,34.48
2022-08-05T14:10:12.708Z,34.18
2022-08-05T14:12:42.629Z,33.72
2022-08-05T14:16:07.118Z,33.22
2022-08-05T14:18:01.400Z,33.18
2022-08-05T14:20:30.730Z,33.14
2022-08-05T14:22:59.530Z,33.16
2022-08-05T14:25:28.145Z,33.21
2022-08-05T14:27:56.307Z,33.30
2022-08-05T14:30:28.029Z,33.44
2022-08-05T14:32:57.067Z,33.67
2022-08-05T14:35:37.062Z,33.65
2022-08-05T14:38:31.639Z,33.35
2022-08-05T14:41:05.840Z,33.34
2022-08-05T14:44:02.059Z,33.00
2022-08-05T14:46:30.729Z,32.35
2022-08-05T14:49:06.510Z,32.16
2022-08-05T14:51:37.580Z,32.43
2022-08-05T14:54:28.291Z,32.31
2022-08-05T14:56:55.570Z,32.17
2022-08-05T14:59:23.694Z,32.22
2022-08-05T15:01:51.433Z,32.17
2022-08-05T15:04:22.780Z,32.35
2022-08-05T15:06:51.769Z,32.58
2022-08-05T15:09:50.552Z,32.67
2022-08-05T15:12:11.596Z,32.30
2022-08-05T15:14:49.506Z,32.54
2022-08-05T15:17:46.985Z,32.73
2022-08-05T15:20:18.934Z,32.99
2022-08-05T15:22:52.347Z,33.20
2022-08-05T15:25:41.017Z,32.93
2022-08-05T15:28:14.874Z,32.82
2022-08-05T15:30:45.626Z,32.71
2022-08-05T15:34:05.013Z,32.08
2022-08-05T15:36:04.920Z,32.04
2022-08-05T15:38:40.793Z,32.04
2022-08-05T15:41:21.236Z,32.00
2022-08-05T15:43:54.592Z,31.79
2022-08-05T15:46:24.812Z,31.59
2022-08-05T15:48:58.907Z,31.53
2022-08-05T15:52:09.933Z,31.76
2022-08-05T15:54:18.361Z,31.54
2022-08-05T15:56:46.039Z,31.61
2022-08-05T15:59:19.855Z,31.72
2022-08-05T16:01:52.944Z,31.92
2022-08-05T16:04:25.604Z,31.52
2022-08-05T16:06:55.733Z,31.37
2022-08-05T16:09:25.019Z,31.31
2022-08-05T16:11:54.010Z,31.37
2022-08-05T16:14:22.800Z,31.24
2022-08-05T16:16:50.994Z,31.02
2022-08-05T16:20:03.113Z,30.85
2022-08-05T16:22:10.712Z,30.87
2022-08-05T16:24:51.250Z,30.83
2022-08-05T16:27:32.044Z,30.79
2022-08-05T16:30:25.839Z,30.60
2022-08-05T16:32:54.598Z,30.63
2022-08-05T16:35:28.260Z,30.56
2022-08-05T16:38:16.013Z,30.36
2022-08-05T16:40:51.636Z,30.21
2022-08-05T16:43:25.164Z,30.28
2022-08-05T16:46:07.051Z,30.38
2022-08-05T16:48:40.637Z,30.44
2022-08-05T16:51:09.437Z,30.48
2022-08-05T16:54:06.074Z,30.48
2022-08-05T16:56:31.456Z,30.43
2022-08-05T16:58:59.084Z,30.49
2022-08-05T17:01:52.573Z,30.36
2022-08-05T17:04:18.781Z,30.34
2022-08-05T17:06:53.292Z,30.37
2022-08-05T17:09:23.120Z,30.32
2022-08-05T17:11:56.122Z,30.26
2022-08-05T17:14:36.683Z,30.10
2022-08-05T17:17:14.539Z,30.09
2022-08-05T17:19:45.598Z,30.05
2022-08-05T17:22:24.966Z,29.88
2022-08-05T17:24:57.063Z,29.73
2022-08-05T17:27:33.514Z,29.61
2022-08-05T17:30:07.076Z,29.55
2022-08-05T17:32:42.135Z,29.45
2022-08-05T17:35:12.223Z,29.28
2022-08-05T17:37:45.492Z,29.24
2022-08-05T17:40:17.925Z,29.15
2022-08-05T17:42:50.586Z,29.02
2022-08-05T17:45:22.205Z,28.92
2022-08-05T17:47:55.081Z,28.77
2022-08-05T17:50:30.312Z,28.69
2022-08-05T17:53:00.183Z,28.53
2022-08-05T17:55:34.247Z,28.40
2022-08-05T17:58:13.623Z,28.30
2022-08-05T18:00:47.456Z,28.27
2022-08-05T18:03:48.351Z,28.10
2022-08-05T18:06:12.118Z,28.08
2022-08-05T18:08:45.908Z,28.01
2022-08-05T18:11:23.952Z,27.80
2022-08-05T18:14:06.561Z,27.32
2022-08-05T18:16:51.361Z,27.10
2022-08-05T18:19:22.755Z,26.84
2022-08-05T18:22:08.421Z,26.48
2022-08-05T18:24:39.934Z,26.23
2022-08-05T18:27:12.981Z,26.06
2022-08-05T18:29:53.673Z,25.79
2022-08-05T18:32:27.749Z,25.68
2022-08-05T18:34:56.758Z,25.48
2022-08-05T18:37:34.508Z,25.29
2022-08-05T18:41:50.143Z,24.91
2022-08-05T18:42:58.078Z,24.36
2022-08-05T18:45:41.903Z,24.24
2022-08-05T18:48:11.151Z,23.98
2022-08-05T18:52:03.255Z,23.80
2022-08-05T18:53:50.166Z,23.75
2022-08-05T18:56:21.773Z,23.56
2022-08-05T18:58:54.934Z,23.47
2022-08-05T19:01:33.327Z,23.31
2022-08-05T19:04:24.350Z,23.06
2022-08-05T19:06:53.826Z,22.93
2022-08-05T19:09:22.058Z,22.70
2022-08-05T19:11:59.999Z,22.52
2022-08-05T19:14:53.419Z,22.45
2022-08-05T19:17:17.280Z,22.39
2022-08-05T19:19:48.634Z,22.28
2022-08-05T19:22:17.732Z,22.15
2022-08-05T19:24:54.585Z,22.05
2022-08-05T19:27:27.914Z,22.09
2022-08-05T19:29:58.602Z,22.08
2022-08-05T19:32:27.942Z,22.11
2022-08-05T19:34:56.937Z,22.15
2022-08-05T19:37:29.804Z,22.08
2022-08-05T19:40:15.003Z,22.12
2022-08-05T19:42:42.895Z,21.97
2022-08-05T19:45:36.297Z,21.91
2022-08-05T19:48:05.580Z,21.92
2022-08-05T19:50:33.540Z,21.94
2022-08-05T19:53:09.603Z,21.98
2022-08-05T19:56:15.704Z,21.89
2022-08-05T19:58:29.618Z,21.79
2022-08-05T20:00:58.229Z,21.60
2022-08-05T20:03:26.699Z,21.46
2022-08-05T20:05:56.779Z,21.39
2022-08-05T20:08:25.612Z,21.38
2022-08-05T20:10:54.041Z,21.42
2022-08-05T20:13:54.778Z,21.34
2022-08-05T20:16:10.234Z,21.28
2022-08-05T20:18:38.135Z,21.17
2022-08-05T20:21:07.431Z,21.00
2022-08-05T20:23:39.472Z,20.92
2022-08-05T20:26:23.292Z,20.78
2022-08-05T20:28:55.725Z,20.69
2022-08-05T20:31:36.794Z,20.64
2022-08-05T20:34:12.421Z,20.71
2022-08-05T20:36:43.143Z,20.58
2022-08-05T20:39:16.110Z,20.59
2022-08-05T20:41:45.171Z,20.53
2022-08-05T20:44:19.418Z,20.48
2022-08-05T20:47:03.427Z,20.37
2022-08-05T20:49:37.951Z,20.36
2022-08-05T20:52:08.781Z,20.28
2022-08-05T20:54:42.873Z,20.29
2022-08-05T20:57:43.000Z,20.27
2022-08-05T21:00:41.562Z,20.17
2022-08-05T21:03:07.332Z,20.02
2022-08-05T21:05:54.233Z,19.97
2022-08-05T21:08:26.534Z,20.01
2022-08-05T21:11:09.198Z,19.98
2022-08-05T21:13:47.526Z,19.97
2022-08-05T21:16:29.679Z,19.80
2022-08-05T21:19:01.930Z,19.74
2022-08-05T21:21:39.459Z,19.68
2022-08-05T21:24:15.626Z,19.60
2022-08-05T21:26:53.136Z,19.63
2022-08-05T21:29:26.594Z,19.58
2022-08-05T21:32:00.282Z,19.40
2022-08-05T21:34:28.590Z,19.26
2022-08-05T21:36:59.403Z,19.23
2022-08-05T21:39:28.097Z,19.16
2022-08-05T21:42:01.993Z,19.20
2022-08-05T21:44:31.724Z,19.11
2022-08-05T21:47:00.397Z,19.05
2022-08-05T21:49:59.272Z,18.95
2022-08-05T21:52:27.894Z,18.95
2022-08-05T21:55:06.047Z,18.89
2022-08-05T21:57:35.740Z,18.87
2022-08-05T22:00:10.844Z,18.90
2022-08-05T22:02:42.654Z,18.89
2022-08-05T22:05:11.609Z,18.95
2022-08-05T22:07:58.451Z,18.80
2022-08-05T22:10:28.350Z,18.59
2022-08-05T22:12:58.883Z,18.53
2022-08-05T22:16:01.027Z,18.44
2022-08-05T22:18:24.848Z,18.40
2022-08-05T22:20:53.993Z,18.33
2022-08-05T22:24:01.946Z,18.31
2022-08-05T22:27:10.928Z,18.28
2022-08-05T22:29:44.239Z,18.16
2022-08-05T22:32:17.516Z,18.08
2022-08-05T22:34:45.834Z,18.07
2022-08-05T22:37:13.503Z,18.10
2022-08-05T22:39:41.054Z,18.01
2022-08-05T22:42:12.666Z,17.84
2022-08-05T22:44:48.168Z,17.48
2022-08-05T22:47:29.986Z,17.09
2022-08-05T22:50:20.747Z,16.79
2022-08-05T22:52:51.344Z,16.63
2022-08-05T22:55:21.649Z,16.36
2022-08-05T22:57:51.535Z,16.36
2022-08-05T23:00:21.679Z,16.27
2022-08-05T23:02:52.214Z,16.24
2022-08-05T23:05:22.068Z,16.26
2022-08-05T23:07:51.409Z,16.25
2022-08-05T23:10:23.499Z,16.33
2022-08-05T23:12:54.598Z,16.33
2022-08-05T23:15:29.937Z,16.40
2022-08-05T23:18:05.921Z,16.48
2022-08-05T23:20:39.474Z,16.51
2022-08-05T23:23:08.717Z,16.57
2022-08-05T23:25:53.302Z,16.73
2022-08-05T23:28:28.852Z,16.69
2022-08-05T23:31:03.728Z,16.73
2022-08-05T23:34:03.763Z,16.81
2022-08-05T23:36:39.965Z,16.70
2022-08-05T23:39:32.449Z,16.73
2022-08-05T23:42:08.605Z,16.76
2022-08-05T23:44:42.628Z,16.70
2022-08-05T23:47:15.333Z,16.77
2022-08-05T23:49:45.631Z,16.71
2022-08-05T23:52:32.141Z,16.64
2022-08-05T23:55:09.201Z,16.59
2022-08-05T23:57:38.709Z,16.65
